Time;durP1;ratioP1;P1;durP2;ratioP2;P2;SDS_P1;SDS_P2;PMS_P1;PMS_P2;Temp;Humidity;BMP_temperature;BMP_pressure;BME280_temperature;BME280_humidity;BME280_pressure;Samples;Min_cycle;Max_cycle;Signal;HPM_P1;HPM_P2
2024/02/14 00:01:52;;;;;;;6.00;4.20;;;;;;;4.73;78.81;94439.09;4990658;28;20030;-73
2024/02/14 00:04:18;;;;;;;6.50;4.05;;;;;;;4.77;79.18;94418.22;4990181;28;20042;-73
2024/02/14 00:06:45;;;;;;;6.43;4.40;;;;;;;4.86;78.76;94433.06;4983280;28;20031;-73
2024/02/14 00:09:11;;;;;;;5.63;4.40;;;;;;;4.82;79.08;94444.50;4989154;28;20531;-73
2024/02/14 00:11:36;;;;;;;5.35;3.72;;;;;;;4.85;78.71;94430.59;4992131;28;20026;-73
2024/02/14 00:14:02;;;;;;;5.78;4.57;;;;;;;4.86;78.51;94455.41;4975290;28;20035;-73
2024/02/14 00:16:29;;;;;;;6.85;4.70;;;;;;;4.82;78.57;94451.34;4975117;28;20049;-73
2024/02/14 00:18:56;;;;;;;6.93;5.00;;;;;;;4.87;77.73;94457.84;4992713;28;20030;-73
2024/02/14 00:21:22;;;;;;;6.13;4.43;;;;;;;4.87;77.66;94454.47;4958120;28;20417;-73
2024/02/14 00:23:47;;;;;;;5.32;4.00;;;;;;;4.92;77.54;94455.81;4992384;28;20027;-73
2024/02/14 00:26:13;;;;;;;5.65;4.38;;;;;;;4.81;77.45;94450.53;4992181;28;20488;-73
2024/02/14 00:28:38;;;;;;;6.03;4.53;;;;;;;4.88;77.41;94459.53;4975453;28;20401;-73
2024/02/14 00:31:06;;;;;;;7.72;4.60;;;;;;;4.86;77.56;94461.38;4984803;28;20497;-73
2024/02/14 00:33:31;;;;;;;6.15;4.43;;;;;;;4.95;77.33;94459.09;4956513;28;20033;-73
2024/02/14 00:35:57;;;;;;;5.88;4.50;;;;;;;4.89;76.76;94450.84;4972515;28;20051;-73
2024/02/14 00:38:22;;;;;;;6.15;4.60;;;;;;;4.78;76.78;94444.78;4956701;28;20391;-73
2024/02/14 00:40:47;;;;;;;5.80;4.60;;;;;;;4.86;76.88;94463.13;4983196;28;20559;-73
2024/02/14 00:43:13;;;;;;;7.22;5.00;;;;;;;4.81;76.92;94455.69;4992041;28;20050;-73
2024/02/14 00:45:39;;;;;;;6.78;4.88;;;;;;;4.92;77.31;94454.97;4993444;28;20042;-73
2024/02/14 00:48:05;;;;;;;6.93;5.18;;;;;;;5.02;77.11;94456.03;4993183;28;20130;-73
2024/02/14 00:50:30;;;;;;;6.18;4.78;;;;;;;4.99;76.96;94461.38;5006754;28;20058;-73
2024/02/14 00:52:56;;;;;;;7.75;4.82;;;;;;;4.98;77.00;94464.06;4991820;28;20528;-73
2024/02/14 00:55:21;;;;;;;5.95;4.30;;;;;;;4.91;76.61;94468.78;4993267;28;20035;-73
2024/02/14 00:57:47;;;;;;;6.03;4.43;;;;;;;4.88;76.40;94443.25;4974031;28;20097;-73
2024/02/14 01:00:13;;;;;;;5.65;4.70;;;;;;;4.88;76.80;94464.66;4975512;28;20034;-73
2024/02/14 01:02:38;;;;;;;6.38;4.45;;;;;;;4.77;76.38;94451.69;4991684;28;20053;-73
2024/02/14 01:05:04;;;;;;;6.40;4.95;;;;;;;4.84;76.91;94462.38;4991380;28;20504;-72
2024/02/14 01:07:30;;;;;;;5.45;4.70;;;;;;;4.89;77.11;94460.34;4958400;28;20031;-73
2024/02/14 01:09:55;;;;;;;6.38;5.15;;;;;;;4.85;77.60;94462.28;4973549;28;20497;-73
2024/02/14 01:12:21;;;;;;;6.72;5.35;;;;;;;4.73;77.12;94447.66;4956089;28;20073;-73
2024/02/14 01:14:46;;;;;;;6.50;4.97;;;;;;;4.85;76.72;94466.63;4971956;28;20038;-73
2024/02/14 01:17:11;;;;;;;7.05;5.35;;;;;;;4.85;76.77;94459.72;4983691;28;20031;-73
2024/02/14 01:19:37;;;;;;;6.93;5.28;;;;;;;4.65;76.53;94434.47;4991287;28;20034;-73
2024/02/14 01:22:03;;;;;;;7.28;5.28;;;;;;;4.95;77.05;94466.81;4991196;28;20026;-73
2024/02/14 01:24:30;;;;;;;6.43;4.78;;;;;;;5.04;76.56;94456.75;4991241;28;20030;-73
2024/02/14 01:26:55;;;;;;;7.40;5.28;;;;;;;5.02;76.51;94465.50;4993731;28;20049;-73
2024/02/14 01:29:21;;;;;;;7.18;5.80;;;;;;;4.87;76.36;94460.44;5010849;28;20034;-73
2024/02/14 01:31:46;;;;;;;7.22;5.20;;;;;;;4.86;76.65;94463.94;4994166;28;20029;-73
2024/02/14 01:34:12;;;;;;;7.72;5.28;;;;;;;4.84;76.32;94460.63;5005521;28;20038;-73
2024/02/14 01:36:38;;;;;;;6.13;4.90;;;;;;;4.87;76.38;94457.84;4974892;28;20057;-73
2024/02/14 01:39:06;;;;;;;10.60;5.25;;;;;;;4.93;76.50;94466.91;4974929;28;20485;-73
2024/02/14 01:41:32;;;;;;;6.22;4.93;;;;;;;4.99;76.37;94463.97;4991028;28;20414;-73
2024/02/14 01:43:59;;;;;;;6.72;5.05;;;;;;;4.95;76.13;94466.81;4970167;28;20030;-73
2024/02/14 01:46:24;;;;;;;6.45;4.90;;;;;;;4.86;76.29;94466.50;4955402;28;20049;-73
2024/02/14 01:48:49;;;;;;;7.47;5.68;;;;;;;4.95;75.85;94453.97;4972541;28;20490;-73
2024/02/14 01:51:17;;;;;;;7.88;5.07;;;;;;;4.92;76.55;94449.84;4971322;28;20035;-73
2024/02/14 01:53:42;;;;;;;6.25;4.97;;;;;;;4.79;76.19;94465.28;4985384;28;20026;-73
2024/02/14 01:56:08;;;;;;;6.63;5.43;;;;;;;4.73;75.97;94465.66;4990571;28;20433;-73
2024/02/14 01:58:33;;;;;;;7.53;5.22;;;;;;;4.70;76.19;94445.28;4974598;28;20022;-73
2024/02/14 02:00:59;;;;;;;6.68;5.07;;;;;;;4.67;75.92;94473.78;4989914;28;20039;-73
2024/02/14 02:03:24;;;;;;;6.55;5.45;;;;;;;4.69;76.35;94456.50;4955388;28;20441;-73
2024/02/14 02:05:50;;;;;;;7.80;5.57;;;;;;;4.73;76.04;94470.00;4974817;28;20041;-73
2024/02/14 02:08:15;;;;;;;7.60;5.32;;;;;;;4.79;75.34;94441.28;4974327;28;20057;-73
2024/02/14 02:10:41;;;;;;;7.00;5.50;;;;;;;4.74;75.41;94457.03;4988817;28;20031;-73
2024/02/14 02:13:06;;;;;;;7.38;5.70;;;;;;;4.75;75.88;94471.53;4990518;28;20049;-73
2024/02/14 02:15:32;;;;;;;7.07;5.35;;;;;;;4.65;75.71;94448.16;4974330;28;20040;-73
2024/02/14 02:17:59;;;;;;;7.38;5.60;;;;;;;4.73;75.65;94468.22;4958045;28;20029;-74
2024/02/14 02:20:25;;;;;;;8.05;5.15;;;;;;;4.75;75.89;94478.44;4979535;28;20531;-73
2024/02/14 02:22:51;;;;;;;7.40;5.50;;;;;;;4.51;76.48;94439.69;4955115;28;20081;-73
2024/02/14 02:25:17;;;;;;;7.40;5.30;;;;;;;4.79;75.69;94478.16;4970761;28;20457;-73
2024/02/14 02:27:42;;;;;;;6.90;5.30;;;;;;;4.84;75.07;94477.81;4972087;28;20085;-73
2024/02/14 02:30:10;;;;;;;6.13;4.93;;;;;;;4.84;75.35;94470.94;4985941;28;20034;-73
2024/02/14 02:32:35;;;;;;;7.72;5.30;;;;;;;4.88;74.64;94485.25;4974643;28;20038;-73
2024/02/14 02:35:01;;;;;;;7.53;5.35;;;;;;;4.89;74.51;94480.94;4973885;28;20568;-73
2024/02/14 02:37:28;;;;;;;6.10;5.28;;;;;;;4.59;75.17;94488.88;4988669;28;20023;-73
2024/02/14 02:39:54;;;;;;;6.85;4.97;;;;;;;4.73;74.89;94488.00;4990292;28;20529;-73
2024/02/14 02:42:19;;;;;;;7.32;5.38;;;;;;;4.68;75.29;94484.00;4973951;28;20027;-73
2024/02/14 02:44:52;;;;;;;7.82;6.22;;;;;;;4.89;74.77;94491.22;4990048;28;20115;-74
2024/02/14 02:47:17;;;;;;;7.47;5.82;;;;;;;4.91;74.79;94485.06;4981535;28;20093;-73
2024/02/14 02:49:46;;;;;;;7.80;4.70;;;;;;;4.80;75.03;94484.13;4971975;28;20039;-73
2024/02/14 02:52:11;;;;;;;6.10;4.72;;;;;;;4.67;74.82;94484.91;4970592;28;20058;-73
2024/02/14 02:54:40;;;;;;;7.05;4.97;;;;;;;4.67;74.82;94486.66;4954805;28;20061;-73
2024/02/14 02:57:06;;;;;;;7.00;5.75;;;;;;;4.71;74.84;94495.84;4984012;28;20508;-74
2024/02/14 02:59:32;;;;;;;7.60;5.68;;;;;;;4.74;74.73;94502.53;4973866;28;20049;-74
2024/02/14 03:01:58;;;;;;;6.82;4.97;;;;;;;4.91;73.97;94502.25;4991198;28;20026;-73
2024/02/14 03:04:24;;;;;;;7.07;5.30;;;;;;;4.88;73.81;94508.44;4989248;28;20045;-73
2024/02/14 03:06:49;;;;;;;8.07;5.60;;;;;;;4.89;73.65;94504.09;4938678;28;20429;-73
2024/02/14 03:09:15;;;;;;;7.00;5.00;;;;;;;4.40;73.76;94443.78;4970472;28;20035;-73
2024/02/14 03:11:40;;;;;;;7.70;5.30;;;;;;;4.73;74.37;94499.13;4954466;28;20027;-73
2024/02/14 03:14:07;;;;;;;7.20;5.43;;;;;;;4.80;74.05;94508.09;4973537;28;20030;-73
2024/02/14 03:16:33;;;;;;;7.30;5.47;;;;;;;4.85;74.54;94500.91;4989966;28;20030;-73
2024/02/14 03:18:58;;;;;;;5.95;5.13;;;;;;;4.74;74.22;94518.78;4973614;28;20057;-73
2024/02/14 03:21:24;;;;;;;7.60;5.53;;;;;;;4.62;74.50;94509.28;4990976;28;20512;-73
2024/02/14 03:23:49;;;;;;;8.27;5.68;;;;;;;4.92;73.58;94514.19;4966827;28;20085;-73
2024/02/14 03:26:15;;;;;;;6.88;5.50;;;;;;;4.89;73.84;94517.78;4974055;28;20066;-73
2024/02/14 03:28:40;;;;;;;7.35;5.47;;;;;;;4.78;74.05;94529.72;4974031;28;20026;-73
2024/02/14 03:31:05;;;;;;;6.82;5.63;;;;;;;4.69;73.68;94523.41;4974125;28;20305;-74
2024/02/14 03:33:31;;;;;;;8.63;5.53;;;;;;;4.52;73.46;94505.66;4972615;28;20150;-73
2024/02/14 03:35:56;;;;;;;7.78;5.88;;;;;;;4.77;73.25;94541.75;4973546;28;20524;-73
2024/02/14 03:38:28;;;;;;;7.20;5.40;;;;;;;4.80;73.23;94549.28;4957646;28;20027;-73
2024/02/14 03:40:54;;;;;;;7.53;5.50;;;;;;;4.90;72.90;94549.50;4973474;28;20023;-73
2024/02/14 03:43:19;;;;;;;10.38;6.10;;;;;;;4.68;73.33;94548.31;4993178;28;20472;-73
2024/02/14 03:45:46;;;;;;;7.10;5.63;;;;;;;4.70;73.16;94541.31;4972507;28;20105;-73
2024/02/14 03:48:11;;;;;;;7.32;5.57;;;;;;;4.75;72.92;94532.47;4972904;28;20030;-73
2024/02/14 03:50:40;;;;;;;7.38;5.85;;;;;;;4.67;72.96;94554.38;4956114;28;20034;-73
2024/02/14 03:53:06;;;;;;;6.90;5.65;;;;;;;4.80;72.74;94557.00;4973531;28;20035;-74
2024/02/14 03:55:31;;;;;;;7.18;5.22;;;;;;;4.89;72.38;94555.59;4956825;28;20113;-73
2024/02/14 03:57:56;;;;;;;9.50;5.80;;;;;;;4.75;73.10;94561.63;4956727;28;20034;-73
2024/02/14 04:00:22;;;;;;;14.40;12.05;;;;;;;4.88;72.54;94572.78;4974915;28;20038;-73
2024/02/14 04:02:48;;;;;;;17.83;13.98;;;;;;;4.86;72.32;94568.66;4974577;28;20391;-73
2024/02/14 04:05:14;;;;;;;11.63;8.70;;;;;;;4.80;72.30;94554.44;4973192;28;20073;-73
2024/02/14 04:07:40;;;;;;;7.63;5.72;;;;;;;4.54;71.99;94521.81;4955832;28;20030;-74
2024/02/14 04:10:05;;;;;;;7.43;5.95;;;;;;;4.70;71.99;94550.78;4972700;28;20444;-73
2024/02/14 04:12:31;;;;;;;8.38;6.05;;;;;;;4.59;72.47;94542.91;4957133;28;20027;-73
2024/02/14 04:14:57;;;;;;;7.22;6.05;;;;;;;4.73;72.44;94563.44;4956068;28;20039;-73
2024/02/14 04:17:23;;;;;;;8.98;5.90;;;;;;;4.71;72.09;94567.88;4948900;28;20035;-74
2024/02/14 04:19:49;;;;;;;6.97;5.60;;;;;;;4.62;72.40;94573.59;4965635;28;20035;-74
2024/02/14 04:22:14;;;;;;;9.02;6.20;;;;;;;4.54;72.20;94583.53;4984612;28;20437;-74
2024/02/14 04:24:40;;;;;;;9.48;7.25;;;;;;;4.66;72.35;94590.50;4991502;28;20037;-74
2024/02/14 04:27:05;;;;;;;8.18;6.43;;;;;;;4.61;72.49;94584.81;4988322;28;20038;-73
2024/02/14 04:29:33;;;;;;;7.15;5.57;;;;;;;4.70;72.21;94571.38;4968750;28;20027;-74
2024/02/14 04:32:02;;;;;;;8.88;6.88;;;;;;;4.67;72.33;94582.69;4983047;28;20049;-74
2024/02/14 04:34:28;;;;;;;10.75;6.53;;;;;;;4.71;71.81;94580.75;4990928;28;20026;-74
2024/02/14 04:36:53;;;;;;;7.55;6.25;;;;;;;4.72;71.77;94589.28;4973314;28;20093;-74
2024/02/14 04:39:19;;;;;;;7.88;6.43;;;;;;;4.68;71.86;94591.22;4990737;28;20034;-74
2024/02/14 04:41:44;;;;;;;8.73;6.53;;;;;;;4.65;72.17;94594.84;4988990;28;20412;-74
2024/02/14 04:44:10;;;;;;;8.48;6.68;;;;;;;4.28;72.21;94562.03;4957260;28;20497;-74
2024/02/14 04:46:35;;;;;;;7.95;6.15;;;;;;;4.50;72.30;94602.69;4963517;28;20401;-74
2024/02/14 04:49:04;;;;;;;8.68;6.72;;;;;;;4.60;72.44;94608.91;4980535;28;20038;-74
2024/02/14 04:51:30;;;;;;;9.05;7.53;;;;;;;4.40;72.75;94608.41;4984605;28;20033;-74
2024/02/14 04:53:58;;;;;;;10.40;7.97;;;;;;;4.45;72.79;94611.50;4973457;28;20034;-74
2024/02/14 04:56:25;;;;;;;8.77;6.68;;;;;;;4.40;72.86;94613.56;4989793;28;20037;-74
2024/02/14 04:58:51;;;;;;;8.57;6.70;;;;;;;4.53;72.63;94612.78;4975152;28;20057;-74
2024/02/14 05:01:18;;;;;;;11.02;7.95;;;;;;;4.50;72.83;94618.13;4973789;28;20062;-74
2024/02/14 05:03:43;;;;;;;12.48;10.10;;;;;;;4.44;72.46;94599.56;4973731;28;20026;-74
2024/02/14 05:06:08;;;;;;;11.10;9.10;;;;;;;4.44;73.52;94627.84;4989368;28;20057;-74
2024/02/14 05:08:34;;;;;;;9.20;6.63;;;;;;;4.35;72.68;94607.03;4991380;28;20725;-74
2024/02/14 05:11:00;;;;;;;10.38;7.60;;;;;;;4.38;72.99;94635.97;4991132;28;20073;-74
2024/02/14 05:13:25;;;;;;;10.13;8.10;;;;;;;4.49;74.03;94643.03;4989816;28;20030;-74
2024/02/14 05:15:51;;;;;;;8.50;6.90;;;;;;;4.51;73.12;94648.88;4974937;28;20034;-74
2024/02/14 05:18:16;;;;;;;10.75;7.50;;;;;;;4.50;72.99;94649.00;4988965;28;20022;-74
2024/02/14 05:20:42;;;;;;;9.45;7.40;;;;;;;4.42;73.39;94637.41;4992716;28;20425;-74
2024/02/14 05:23:08;;;;;;;10.10;8.07;;;;;;;4.59;73.18;94661.28;4989289;28;20417;-74
2024/02/14 05:25:33;;;;;;;9.75;7.55;;;;;;;4.48;72.91;94660.22;4974835;28;20461;-74
2024/02/14 05:28:00;;;;;;;10.52;8.00;;;;;;;4.58;72.85;94669.94;4989792;28;20029;-74
2024/02/14 05:30:26;;;;;;;10.10;8.45;;;;;;;4.59;72.51;94669.00;4989447;28;20062;-74
2024/02/14 05:32:52;;;;;;;10.25;8.23;;;;;;;4.55;73.03;94677.84;4969469;28;20179;-74
2024/02/14 05:35:17;;;;;;;11.77;8.40;;;;;;;4.59;72.35;94674.97;4974998;28;20062;-74
2024/02/14 05:37:43;;;;;;;9.43;7.72;;;;;;;4.38;72.85;94660.84;5004655;28;20036;-74
2024/02/14 05:40:27;;;;;;;10.23;8.18;;;;;;;4.62;72.36;94674.75;5009503;28;20033;-74
2024/02/14 05:42:52;;;;;;;10.80;8.77;;;;;;;4.11;72.90;94646.16;4987756;28;20483;-74
2024/02/14 05:45:18;;;;;;;11.18;8.75;;;;;;;4.48;73.03;94685.94;5001808;28;20033;-74
2024/02/14 05:47:43;;;;;;;10.68;8.43;;;;;;;4.35;73.38;94682.44;5008927;28;20018;-74
2024/02/14 05:50:11;;;;;;;11.90;8.70;;;;;;;4.28;73.43;94683.72;4993026;28;20038;-74
2024/02/14 05:52:36;;;;;;;12.18;8.55;;;;;;;4.48;73.10;94692.81;5003264;28;20626;-74
2024/02/14 05:55:03;;;;;;;11.38;8.20;;;;;;;4.63;72.93;94691.06;4990323;28;20033;-74
2024/02/14 05:57:29;;;;;;;10.07;8.40;;;;;;;4.48;72.52;94693.66;5001761;28;20516;-74
2024/02/14 05:59:54;;;;;;;9.93;7.93;;;;;;;4.28;72.85;94699.16;4996370;28;20030;-74
2024/02/14 06:02:20;;;;;;;10.80;7.82;;;;;;;4.32;73.00;94698.06;5004408;28;20033;-74
2024/02/14 06:04:45;;;;;;;13.15;10.40;;;;;;;4.38;73.16;94713.13;5000994;28;20453;-74
2024/02/14 06:07:11;;;;;;;15.50;10.80;;;;;;;4.25;73.09;94676.19;4979497;28;20554;-74
2024/02/14 06:09:37;;;;;;;10.85;8.60;;;;;;;4.29;73.04;94718.81;5002528;28;20431;-74
2024/02/14 06:12:03;;;;;;;13.07;9.05;;;;;;;4.43;72.76;94723.97;5003591;28;20026;-74
2024/02/14 06:14:30;;;;;;;19.33;13.00;;;;;;;4.30;72.84;94720.47;5009729;28;20042;-74
2024/02/14 06:16:56;;;;;;;10.88;8.57;;;;;;;4.23;73.09;94725.16;5005384;28;20030;-73
2024/02/14 06:19:22;;;;;;;19.67;13.57;;;;;;;4.20;72.13;94720.16;5002449;28;20436;-72
2024/02/14 06:21:47;;;;;;;22.88;15.27;;;;;;;4.34;72.95;94737.34;4975494;28;20029;-74
2024/02/14 06:24:13;;;;;;;11.50;8.82;;;;;;;4.36;71.75;94740.66;4992421;28;20046;-73
2024/02/14 06:26:38;;;;;;;10.43;7.50;;;;;;;4.13;71.84;94738.66;5005711;28;20029;-73
2024/02/14 06:29:04;;;;;;;10.00;7.65;;;;;;;4.27;71.75;94740.41;4996276;28;20559;-73
2024/02/14 06:31:29;;;;;;;11.02;8.05;;;;;;;4.23;71.81;94739.75;5003917;28;20026;-75
2024/02/14 06:33:55;;;;;;;92.15;39.55;;;;;;;4.42;72.22;94748.00;5004612;28;20496;-74
2024/02/14 06:36:20;;;;;;;26.70;15.23;;;;;;;4.43;71.30;94749.69;4960114;28;20047;-75
2024/02/14 06:38:46;;;;;;;39.42;21.17;;;;;;;4.45;71.21;94750.41;4955017;28;20035;-78
2024/02/14 06:41:12;;;;;;;19.33;11.27;;;;;;;4.41;71.15;94741.22;4977899;28;20035;-73
2024/02/14 06:43:39;;;;;;;20.83;13.20;;;;;;;4.50;70.97;94749.31;4987335;28;20026;-72
2024/02/14 06:46:05;;;;;;;14.57;9.75;;;;;;;4.39;70.89;94755.09;4988286;28;20073;-71
2024/02/14 06:48:30;;;;;;;14.77;10.55;;;;;;;4.42;70.71;94750.59;5002917;28;20575;-71
2024/02/14 06:50:55;;;;;;;10.88;7.15;;;;;;;4.33;70.90;94760.59;4991469;28;20039;-71
2024/02/14 06:53:21;;;;;;;11.82;9.10;;;;;;;4.02;70.54;94696.38;4960132;28;20034;-70
2024/02/14 06:55:47;;;;;;;11.48;8.70;;;;;;;4.38;70.96;94769.72;4980076;28;20065;-72
2024/02/14 06:58:12;;;;;;;8.93;7.25;;;;;;;4.20;70.58;94771.59;4992000;28;20030;-71
2024/02/14 07:00:38;;;;;;;10.05;7.65;;;;;;;4.45;70.75;94760.69;4972784;28;20101;-71
2024/02/14 07:03:04;;;;;;;9.25;7.82;;;;;;;4.44;70.38;94774.47;4975769;28;20519;-72
2024/02/14 07:05:30;;;;;;;8.45;6.85;;;;;;;4.42;70.44;94770.34;4991074;28;20026;-70
2024/02/14 07:07:56;;;;;;;9.70;7.20;;;;;;;4.28;70.06;94772.91;4979139;28;20161;-74
2024/02/14 07:10:21;;;;;;;8.93;6.80;;;;;;;4.21;70.76;94782.75;4974389;28;20031;-74
2024/02/14 07:12:47;;;;;;;9.93;8.07;;;;;;;4.32;70.41;94795.78;4983183;28;20043;-74
2024/02/14 07:15:12;;;;;;;8.68;6.78;;;;;;;4.31;69.95;94778.69;4991677;28;20516;-74
2024/02/14 07:17:39;;;;;;;10.48;7.22;;;;;;;4.30;70.30;94789.91;4990319;28;20036;-74
2024/02/14 07:20:05;;;;;;;9.40;7.13;;;;;;;4.30;70.42;94789.91;4960961;28;20125;-74
2024/02/14 07:22:31;;;;;;;9.50;6.43;;;;;;;4.22;69.99;94799.81;4964187;28;20041;-74
2024/02/14 07:24:56;;;;;;;9.05;7.13;;;;;;;4.32;69.87;94790.66;4990571;28;20465;-74
2024/02/14 07:27:23;;;;;;;9.55;7.00;;;;;;;4.40;69.62;94801.31;4991387;28;20082;-74
2024/02/14 07:29:49;;;;;;;9.00;7.10;;;;;;;4.30;70.06;94794.22;4991785;28;20034;-74
2024/02/14 07:32:14;;;;;;;9.70;7.75;;;;;;;4.27;69.66;94792.66;4970332;28;20572;-74
2024/02/14 07:34:40;;;;;;;8.70;7.15;;;;;;;4.45;69.33;94801.84;4974397;28;20089;-73
2024/02/14 07:37:05;;;;;;;8.55;6.80;;;;;;;4.33;69.88;94794.88;5004071;28;20056;-73
2024/02/14 07:39:31;;;;;;;10.23;6.65;;;;;;;4.54;69.36;94803.06;5030001;28;20037;-73
2024/02/14 07:41:57;;;;;;;10.75;7.05;;;;;;;4.36;69.48;94807.53;5007541;28;20086;-74
2024/02/14 07:44:23;;;;;;;8.82;7.03;;;;;;;4.36;70.05;94802.41;5014751;28;20053;-74
2024/02/14 07:46:49;;;;;;;10.23;6.63;;;;;;;4.46;69.14;94807.84;4998107;28;20438;-74
2024/02/14 07:49:14;;;;;;;9.18;6.70;;;;;;;4.60;68.45;94810.44;4994955;28;20091;-74
2024/02/14 07:51:40;;;;;;;9.48;6.63;;;;;;;4.35;68.99;94798.19;5018721;28;20032;-74
2024/02/14 07:54:06;;;;;;;8.88;6.68;;;;;;;4.38;68.75;94810.88;4990899;28;20034;-73
2024/02/14 07:56:31;;;;;;;11.30;6.97;;;;;;;4.30;68.90;94809.66;4992093;28;20534;-74
2024/02/14 07:58:57;;;;;;;10.45;6.35;;;;;;;4.36;69.17;94810.13;4986681;28;20582;-73
2024/02/14 08:01:22;;;;;;;8.45;6.63;;;;;;;4.34;69.47;94814.50;4981102;28;20029;-73
2024/02/14 08:03:48;;;;;;;8.88;6.47;;;;;;;4.44;68.67;94820.78;4994323;28;20479;-72
2024/02/14 08:06:14;;;;;;;8.80;6.45;;;;;;;4.19;69.04;94820.56;4967347;28;20507;-73
2024/02/14 08:08:39;;;;;;;9.57;6.80;;;;;;;4.22;69.16;94826.34;4992958;28;20022;-74
2024/02/14 08:11:04;;;;;;;7.32;5.80;;;;;;;4.36;69.03;94833.25;5013340;28;20030;-73
2024/02/14 08:13:30;;;;;;;7.68;5.90;;;;;;;4.18;68.84;94818.88;5009882;28;20427;-73
2024/02/14 08:15:55;;;;;;;7.80;6.63;;;;;;;4.26;69.37;94821.84;4997145;28;20046;-74
2024/02/14 08:18:21;;;;;;;8.70;6.65;;;;;;;4.38;69.35;94839.16;5013136;28;20029;-74
2024/02/14 08:20:46;;;;;;;9.07;6.28;;;;;;;4.37;70.13;94828.94;5033009;28;20427;-74
2024/02/14 08:23:12;;;;;;;7.97;5.95;;;;;;;4.28;69.34;94838.03;5024761;28;20038;-75
2024/02/14 08:25:37;;;;;;;7.57;6.07;;;;;;;4.23;69.61;94847.75;5024601;28;20034;-73
2024/02/14 08:28:03;;;;;;;8.65;6.05;;;;;;;4.26;69.66;94837.28;5006418;28;20091;-74
2024/02/14 08:30:28;;;;;;;8.40;5.93;;;;;;;4.40;69.28;94844.19;5000632;28;20539;-74
2024/02/14 08:32:54;;;;;;;10.02;7.05;;;;;;;4.38;69.99;94848.63;4993714;28;20061;-74
2024/02/14 08:35:19;;;;;;;7.60;6.15;;;;;;;4.37;69.60;94844.38;5006786;28;20547;-74
2024/02/14 08:37:44;;;;;;;7.68;6.15;;;;;;;4.42;69.36;94843.19;5031994;28;20079;-74
2024/02/14 08:40:12;;;;;;;7.35;5.75;;;;;;;4.35;69.67;94823.09;5028289;28;20071;-75
2024/02/14 08:42:37;;;;;;;7.15;5.85;;;;;;;3.97;69.84;94790.13;5010870;28;20410;-74
2024/02/14 08:45:03;;;;;;;7.28;6.18;;;;;;;4.16;69.69;94826.72;4997557;28;20026;-74
2024/02/14 08:47:29;;;;;;;7.85;5.82;;;;;;;4.05;69.45;94831.63;5012644;28;20033;-74
2024/02/14 08:49:54;;;;;;;8.10;6.03;;;;;;;4.19;69.39;94848.84;5028803;28;20039;-74
2024/02/14 08:52:21;;;;;;;7.40;5.90;;;;;;;4.35;69.46;94847.06;4988119;28;20075;-74
2024/02/14 08:54:46;;;;;;;8.32;6.00;;;;;;;4.17;69.21;94815.50;5013643;28;20033;-74
2024/02/14 08:57:12;;;;;;;9.18;7.15;;;;;;;4.44;69.24;94861.13;4999566;28;20032;-73
2024/02/14 08:59:37;;;;;;;13.70;8.38;;;;;;;4.52;68.90;94855.53;5013068;28;20037;-74
2024/02/14 09:02:03;;;;;;;13.68;9.05;;;;;;;4.53;68.71;94870.06;5023063;28;20033;-74
2024/02/14 09:04:29;;;;;;;18.48;8.32;;;;;;;4.34;68.47;94858.25;5030352;28;20030;-74
2024/02/14 09:06:55;;;;;;;8.15;6.32;;;;;;;4.24;68.62;94864.84;4980239;28;20079;-73
2024/02/14 09:09:21;;;;;;;7.45;5.85;;;;;;;4.37;68.46;94863.19;5012228;28;20556;-74
2024/02/14 09:11:47;;;;;;;10.38;6.55;;;;;;;4.23;69.11;94873.47;5011444;28;20025;-74
2024/02/14 09:14:12;;;;;;;7.53;6.05;;;;;;;4.22;68.73;94872.63;5030677;28;20099;-74
2024/02/14 09:16:38;;;;;;;7.43;5.60;;;;;;;4.15;68.97;94861.06;5013254;28;20471;-73
2024/02/14 09:19:07;;;;;;;8.07;5.72;;;;;;;4.34;68.33;94871.09;4991907;28;20029;-73
2024/02/14 09:21:34;;;;;;;7.45;5.75;;;;;;;4.07;68.63;94863.25;4992527;28;20022;-73
2024/02/14 09:23:59;;;;;;;8.10;6.32;;;;;;;4.12;69.10;94871.50;4980161;28;20029;-73
2024/02/14 09:26:26;;;;;;;12.90;9.70;;;;;;;4.32;70.09;94883.25;4979641;28;20419;-72
2024/02/14 09:28:52;;;;;;;8.90;7.10;;;;;;;4.33;68.96;94884.88;5001313;28;20405;-73
2024/02/14 09:31:20;;;;;;;9.07;6.05;;;;;;;4.31;68.82;94879.00;5015474;28;20034;-72
2024/02/14 09:33:48;;;;;;;8.65;6.32;;;;;;;4.23;69.38;94871.75;5031564;28;20033;-70
2024/02/14 09:36:15;;;;;;;23.17;15.57;;;;;;;4.37;69.64;94890.69;5002781;28;20056;-69
2024/02/14 09:38:41;;;;;;;20.73;14.68;;;;;;;4.41;69.92;94897.31;4987766;28;20040;-72
2024/02/14 09:41:40;;;;;;;11.27;8.75;;;;;;;4.49;69.57;94890.00;4995161;28;20033;-74
2024/02/14 09:44:05;;;;;;;10.35;7.47;;;;;;;4.53;69.29;94890.63;5007465;28;20041;-78
2024/02/14 09:46:31;;;;;;;8.43;6.50;;;;;;;4.51;69.14;94887.31;4988684;28;20052;-75
2024/02/14 09:48:56;;;;;;;23.60;13.93;;;;;;;4.33;69.05;94876.34;5005290;28;20026;-73
2024/02/14 09:51:22;;;;;;;8.43;6.30;;;;;;;4.46;69.23;94882.44;4980668;28;20021;-73
2024/02/14 09:53:49;;;;;;;12.48;8.45;;;;;;;4.40;70.19;94870.78;5001955;28;20033;-72
2024/02/14 09:56:16;;;;;;;12.55;9.43;;;;;;;4.22;70.25;94844.34;4971911;28;20040;-73
2024/02/14 09:58:43;;;;;;;7.88;6.30;;;;;;;4.57;69.92;94882.66;5010944;28;20016;-73
2024/02/14 10:01:08;;;;;;;8.55;6.38;;;;;;;4.54;69.83;94882.84;5029332;28;20128;-71
2024/02/14 10:03:35;;;;;;;8.90;6.75;;;;;;;4.57;69.84;94884.38;5023266;28;20030;-72
2024/02/14 10:06:01;;;;;;;8.77;6.55;;;;;;;4.52;69.43;94878.69;5012210;28;20041;-73
2024/02/14 10:08:26;;;;;;;9.32;7.10;;;;;;;4.47;69.31;94882.34;4980470;28;20029;-72
2024/02/14 10:10:52;;;;;;;9.00;6.30;;;;;;;4.60;69.76;94881.66;5003620;28;20037;-74
2024/02/14 10:13:17;;;;;;;7.88;6.75;;;;;;;4.61;69.83;94880.72;5017327;28;20034;-73
2024/02/14 10:15:43;;;;;;;8.30;6.88;;;;;;;4.58;70.05;94888.63;4990909;28;20481;-74
2024/02/14 10:18:11;;;;;;;8.65;6.60;;;;;;;4.53;69.06;94890.63;5008902;28;20029;-73
2024/02/14 10:20:41;;;;;;;8.90;6.47;;;;;;;4.46;69.33;94880.69;4992142;28;20042;-73
2024/02/14 10:23:08;;;;;;;7.78;5.60;;;;;;;4.28;68.11;94883.50;4976667;28;20029;-73
2024/02/14 10:25:34;;;;;;;9.15;6.30;;;;;;;4.27;68.50;94885.25;5009377;28;20068;-73
2024/02/14 10:28:08;;;;;;;7.47;5.70;;;;;;;4.11;68.11;94882.69;4975489;28;20053;-73
2024/02/14 10:30:34;;;;;;;8.85;6.20;;;;;;;4.22;68.70;94875.22;4977680;28;20034;-73
2024/02/14 10:32:59;;;;;;;11.32;8.25;;;;;;;4.33;68.47;94890.03;4961442;28;20015;-73
2024/02/14 10:35:24;;;;;;;8.90;6.35;;;;;;;4.18;68.11;94871.16;5011011;28;20432;-73
2024/02/14 10:37:50;;;;;;;10.35;8.23;;;;;;;4.24;68.44;94867.41;4993549;28;20386;-73
2024/02/14 10:40:15;;;;;;;7.82;6.40;;;;;;;4.30;68.11;94869.63;4977364;28;20052;-73
2024/02/14 10:42:41;;;;;;;8.18;6.43;;;;;;;4.34;67.91;94868.53;4977227;28;20030;-73
2024/02/14 10:45:07;;;;;;;8.30;6.05;;;;;;;4.40;67.22;94886.22;4977076;28;20041;-73
2024/02/14 10:47:34;;;;;;;9.43;6.03;;;;;;;4.53;67.25;94876.00;5011152;28;20030;-73
2024/02/14 10:50:02;;;;;;;86.80;46.83;;;;;;;4.56;67.35;94882.72;4977322;28;20416;-73
2024/02/14 10:52:33;;;;;;;16.77;13.60;;;;;;;4.60;67.90;94873.94;4993467;28;20034;-73
2024/02/14 10:54:58;;;;;;;12.32;9.30;;;;;;;4.72;66.71;94875.78;4977717;28;20393;-73
2024/02/14 10:57:24;;;;;;;10.52;7.25;;;;;;;4.73;65.99;94880.00;4977113;28;20036;-73
2024/02/14 10:59:49;;;;;;;9.00;6.70;;;;;;;4.84;66.49;94885.34;4993415;28;20469;-73
2024/02/14 11:02:15;;;;;;;8.50;6.90;;;;;;;4.44;66.85;94837.97;4977215;28;20029;-73
2024/02/14 11:04:40;;;;;;;8.30;6.45;;;;;;;4.51;67.26;94874.44;4977156;28;20128;-73
2024/02/14 11:07:09;;;;;;;9.45;7.43;;;;;;;4.88;66.15;94886.81;4993223;28;20038;-73
2024/02/14 11:09:38;;;;;;;12.73;7.95;;;;;;;4.77;65.71;94872.94;4993244;28;20073;-73
2024/02/14 11:12:08;;;;;;;17.40;12.77;;;;;;;4.62;66.40;94862.59;4976949;28;20033;-73
2024/02/14 11:14:35;;;;;;;27.47;19.37;;;;;;;4.67;67.00;94882.94;4977776;28;20030;-73
2024/02/14 11:17:01;;;;;;;15.95;12.55;;;;;;;4.76;66.54;94882.38;4993325;28;20281;-73
2024/02/14 11:19:36;;;;;;;13.00;11.00;;;;;;;4.69;66.28;94863.09;4993211;28;20390;-73
2024/02/14 11:22:33;;;;;;;10.80;8.40;;;;;;;4.82;66.14;94876.91;4961637;28;20029;-73
2024/02/14 11:24:59;;;;;;;10.38;8.02;;;;;;;4.67;65.57;94857.19;4999076;28;20500;-73
2024/02/14 11:27:24;;;;;;;8.70;6.00;;;;;;;4.67;65.38;94852.88;4976712;28;20030;-73
2024/02/14 11:29:53;;;;;;;8.30;6.13;;;;;;;4.66;64.99;94881.28;4993147;28;20034;-73
2024/02/14 11:32:18;;;;;;;13.48;8.80;;;;;;;4.51;65.61;94870.13;4976902;28;20071;-74
2024/02/14 11:34:55;;;;;;;9.50;5.97;;;;;;;4.43;65.56;94878.31;4976795;28;20045;-74